Time;durP1;ratioP1;P1;durP2;ratioP2;P2;SDS_P1;SDS_P2;PMS_P1;PMS_P2;Temp;Humidity;BMP_temperature;BMP_pressure;BME280_temperature;BME280_humidity;BME280_pressure;Samples;Min_cycle;Max_cycle;Signal;HPM_P1;HPM_P2
2023/05/14 00:01:51;;;;;;;59.40;23.25;;;;;;;;;;5093992;27;20039;-70
2023/05/14 00:04:18;;;;;;;68.07;23.52;;;;;;;;;;5107565;28;20039;-70
2023/05/14 00:06:44;;;;;;;57.65;23.50;;;;;;;;;;5106902;27;20034;-70
2023/05/14 00:09:09;;;;;;;58.38;24.02;;;;;;;;;;5106655;27;20036;-70
2023/05/14 00:11:34;;;;;;;60.70;23.48;;;;;;;;;;5106402;28;20038;-70
2023/05/14 00:14:00;;;;;;;63.08;24.30;;;;;;;;;;5106606;27;20769;-69
2023/05/14 00:16:25;;;;;;;64.47;25.65;;;;;;;;;;5106128;28;20019;-70
2023/05/14 00:18:50;;;;;;;61.72;23.75;;;;;;;;;;5097174;27;20067;-70
2023/05/14 00:21:16;;;;;;;55.33;22.98;;;;;;;;;;5103047;27;20065;-70
2023/05/14 00:23:41;;;;;;;70.15;24.13;;;;;;;;;;5114131;27;20047;-70
2023/05/14 00:26:07;;;;;;;65.57;24.23;;;;;;;;;;5108946;28;20078;-70
2023/05/14 00:28:32;;;;;;;64.30;24.35;;;;;;;;;;5105309;27;20024;-70
2023/05/14 00:30:57;;;;;;;60.42;23.63;;;;;;;;;;5110617;27;20015;-70
2023/05/14 00:33:23;;;;;;;65.28;23.75;;;;;;;;;;5100467;27;20051;-70
2023/05/14 00:35:48;;;;;;;62.88;23.23;;;;;;;;;;5106150;27;20040;-70
2023/05/14 00:38:18;;;;;;;56.17;22.45;;;;;;;;;;5081211;27;20925;-70
2023/05/14 00:40:49;;;;;;;69.70;24.48;;;;;;;;;;5105814;27;20172;-70
2023/05/14 00:43:19;;;;;;;57.17;23.67;;;;;;;;;;5106442;28;20031;-70
2023/05/14 00:45:45;;;;;;;62.85;23.75;;;;;;;;;;5105544;27;20046;-70
2023/05/14 00:48:11;;;;;;;63.70;25.90;;;;;;;;;;5105382;27;20059;-70
2023/05/14 00:50:37;;;;;;;60.97;22.55;;;;;;;;;;5105957;27;20508;-70
2023/05/14 00:53:08;;;;;;;69.63;26.35;;;;;;;;;;5102887;27;20028;-70
2023/05/14 00:55:36;;;;;;;61.67;23.20;;;;;;;;;;5088613;27;20024;-70
2023/05/14 00:58:06;;;;;;;71.28;25.25;;;;;;;;;;5106187;28;20301;-70
2023/05/14 01:00:31;;;;;;;61.08;24.08;;;;;;;;;;5100892;27;20055;-70
2023/05/14 01:03:00;;;;;;;71.65;25.77;;;;;;;;;;5097116;28;20397;-70
2023/05/14 01:05:35;;;;;;;58.20;23.73;;;;;;;;;;5096631;27;20035;-70
2023/05/14 01:08:38;;;;;;;70.65;23.65;;;;;;;;;;5103419;28;20458;-70
2023/05/14 01:11:12;;;;;;;52.85;21.70;;;;;;;;;;5103785;27;20576;-70
2023/05/14 01:13:56;;;;;;;59.10;23.52;;;;;;;;;;5091490;27;20107;-70
2023/05/14 01:16:26;;;;;;;57.15;23.42;;;;;;;;;;5105344;28;20404;-70
2023/05/14 01:18:53;;;;;;;60.78;24.15;;;;;;;;;;5105321;27;20222;-70
2023/05/14 01:21:39;;;;;;;63.10;24.30;;;;;;;;;;5095100;27;20517;-70
2023/05/14 01:24:05;;;;;;;65.60;23.75;;;;;;;;;;5105272;27;20716;-70
2023/05/14 01:26:32;;;;;;;69.30;24.40;;;;;;;;;;5103310;28;20036;-70
2023/05/14 01:29:09;;;;;;;69.18;24.63;;;;;;;;;;5105039;27;20062;-70
2023/05/14 01:31:38;;;;;;;79.22;25.92;;;;;;;;;;5109070;27;20728;-70
2023/05/14 01:34:05;;;;;;;67.05;23.60;;;;;;;;;;5104203;28;20073;-70
2023/05/14 01:36:31;;;;;;;68.45;23.98;;;;;;;;;;5104972;27;20061;-70
2023/05/14 01:38:59;;;;;;;74.18;25.17;;;;;;;;;;5095474;27;20462;-70
2023/05/14 01:41:25;;;;;;;77.05;25.63;;;;;;;;;;5100725;27;20038;-70
2023/05/14 01:43:51;;;;;;;62.75;22.63;;;;;;;;;;5106276;27;20066;-69
2023/05/14 01:46:19;;;;;;;70.88;26.02;;;;;;;;;;5111102;28;20023;-70
2023/05/14 01:48:45;;;;;;;67.78;24.17;;;;;;;;;;5111130;27;20041;-70
2023/05/14 01:51:13;;;;;;;63.13;23.70;;;;;;;;;;5082895;28;20039;-70
2023/05/14 01:53:38;;;;;;;70.15;24.30;;;;;;;;;;5104257;27;20023;-70
2023/05/14 01:56:03;;;;;;;71.85;24.98;;;;;;;;;;5105062;27;20412;-69
2023/05/14 01:58:29;;;;;;;66.43;24.98;;;;;;;;;;5092031;28;20027;-70
2023/05/14 02:00:54;;;;;;;66.57;23.85;;;;;;;;;;5098269;27;20048;-69
2023/05/14 02:03:20;;;;;;;69.57;24.35;;;;;;;;;;5104711;27;20030;-70
2023/05/14 02:05:45;;;;;;;68.78;24.83;;;;;;;;;;5104817;27;20027;-69
2023/05/14 02:08:11;;;;;;;68.35;23.83;;;;;;;;;;5102236;27;20154;-70
2023/05/14 02:10:36;;;;;;;68.63;24.95;;;;;;;;;;5099919;27;20049;-70
2023/05/14 02:13:02;;;;;;;67.07;24.10;;;;;;;;;;5103426;28;20035;-70
2023/05/14 02:15:28;;;;;;;73.10;24.25;;;;;;;;;;5104568;28;20818;-70
2023/05/14 02:17:53;;;;;;;68.38;23.65;;;;;;;;;;5104131;27;20024;-70
2023/05/14 02:20:18;;;;;;;74.85;23.55;;;;;;;;;;5104765;27;20516;-70
2023/05/14 02:22:45;;;;;;;73.32;24.55;;;;;;;;;;5104533;27;20720;-70
2023/05/14 02:25:10;;;;;;;64.50;24.45;;;;;;;;;;5090511;28;20061;-70
2023/05/14 02:27:36;;;;;;;70.10;25.05;;;;;;;;;;5093894;28;20031;-70
2023/05/14 02:30:02;;;;;;;66.68;23.92;;;;;;;;;;5103675;27;20088;-70
2023/05/14 02:32:27;;;;;;;69.35;24.70;;;;;;;;;;5108249;28;20031;-70
2023/05/14 02:34:53;;;;;;;75.82;25.58;;;;;;;;;;5103299;27;20035;-70
2023/05/14 02:37:18;;;;;;;72.97;25.50;;;;;;;;;;5104983;28;20035;-70
2023/05/14 02:39:43;;;;;;;64.55;24.17;;;;;;;;;;5090566;27;20060;-69
2023/05/14 02:42:09;;;;;;;73.90;25.40;;;;;;;;;;5108664;27;20066;-70
2023/05/14 02:44:34;;;;;;;74.18;23.67;;;;;;;;;;5107077;27;20127;-70
2023/05/14 02:47:00;;;;;;;70.35;23.50;;;;;;;;;;5089501;28;20105;-69
2023/05/14 02:49:25;;;;;;;70.10;25.05;;;;;;;;;;5090972;28;20032;-70
2023/05/14 02:51:53;;;;;;;72.47;25.02;;;;;;;;;;5103219;27;20104;-70
2023/05/14 02:54:18;;;;;;;69.65;23.75;;;;;;;;;;5106295;27;20074;-70
2023/05/14 02:56:43;;;;;;;68.90;24.73;;;;;;;;;;5093676;27;20117;-70
2023/05/14 02:59:09;;;;;;;69.43;24.35;;;;;;;;;;5096799;27;20031;-69
2023/05/14 03:01:34;;;;;;;79.03;26.02;;;;;;;;;;5101583;27;20078;-70
2023/05/14 03:03:59;;;;;;;74.78;25.58;;;;;;;;;;5108864;28;20115;-70
2023/05/14 03:06:25;;;;;;;77.80;25.77;;;;;;;;;;5107000;28;20032;-69
2023/05/14 03:08:51;;;;;;;72.85;25.63;;;;;;;;;;5112266;27;20046;-69
2023/05/14 03:11:17;;;;;;;75.93;24.90;;;;;;;;;;5116660;27;20287;-69
2023/05/14 03:13:42;;;;;;;70.72;23.42;;;;;;;;;;5109376;27;20058;-69
2023/05/14 03:16:07;;;;;;;70.50;24.83;;;;;;;;;;5107440;28;20473;-70
2023/05/14 03:18:35;;;;;;;69.75;23.45;;;;;;;;;;5103511;27;20051;-70
2023/05/14 03:21:00;;;;;;;73.10;25.17;;;;;;;;;;5101770;27;20059;-70
2023/05/14 03:23:25;;;;;;;86.32;24.65;;;;;;;;;;5107206;27;20677;-70
2023/05/14 03:25:51;;;;;;;76.05;26.13;;;;;;;;;;5102745;27;20039;-70
2023/05/14 03:28:16;;;;;;;78.97;27.02;;;;;;;;;;5101402;28;20012;-70
2023/05/14 03:30:42;;;;;;;79.32;25.67;;;;;;;;;;5111720;27;20031;-70
2023/05/14 03:33:07;;;;;;;75.72;26.10;;;;;;;;;;5109362;27;20043;-70
2023/05/14 03:35:32;;;;;;;74.30;23.42;;;;;;;;;;5107568;27;20674;-70
2023/05/14 03:37:58;;;;;;;81.28;27.27;;;;;;;;;;5106082;28;20171;-70
2023/05/14 03:40:24;;;;;;;77.07;24.77;;;;;;;;;;5094371;28;20031;-70
2023/05/14 03:42:50;;;;;;;74.85;24.50;;;;;;;;;;5107191;27;20039;-70
2023/05/14 03:45:15;;;;;;;67.60;24.88;;;;;;;;;;5107464;27;20112;-70
2023/05/14 03:47:40;;;;;;;77.30;25.77;;;;;;;;;;5106563;27;20039;-70
2023/05/14 03:50:07;;;;;;;78.28;26.52;;;;;;;;;;5097863;27;20035;-70
2023/05/14 03:52:32;;;;;;;72.93;24.75;;;;;;;;;;5096950;28;20409;-70
2023/05/14 03:54:58;;;;;;;89.55;27.88;;;;;;;;;;5098824;28;20772;-70
2023/05/14 03:57:23;;;;;;;80.53;26.70;;;;;;;;;;5106946;27;20028;-70
2023/05/14 03:59:48;;;;;;;81.10;27.42;;;;;;;;;;5098087;27;20140;-70
2023/05/14 04:02:14;;;;;;;73.78;25.98;;;;;;;;;;5089516;28;20114;-70
2023/05/14 04:04:41;;;;;;;72.63;24.48;;;;;;;;;;5106503;27;20109;-70
2023/05/14 04:07:07;;;;;;;75.63;26.95;;;;;;;;;;5106698;28;20090;-70
2023/05/14 04:09:33;;;;;;;69.05;24.80;;;;;;;;;;5105860;27;20053;-70
2023/05/14 04:11:58;;;;;;;72.15;25.00;;;;;;;;;;5106429;27;20023;-70
2023/05/14 04:14:23;;;;;;;72.75;24.98;;;;;;;;;;5105363;27;20034;-69
2023/05/14 04:16:49;;;;;;;76.40;25.00;;;;;;;;;;5106626;27;20028;-70
2023/05/14 04:19:14;;;;;;;74.38;25.15;;;;;;;;;;5106952;28;20026;-70
2023/05/14 04:21:39;;;;;;;67.82;24.35;;;;;;;;;;5101121;28;20027;-70
2023/05/14 04:24:05;;;;;;;77.85;25.25;;;;;;;;;;5100844;27;20043;-70
2023/05/14 04:26:30;;;;;;;78.65;25.48;;;;;;;;;;5111844;27;20131;-69
2023/05/14 04:28:57;;;;;;;75.20;24.15;;;;;;;;;;5106995;27;20106;-69
2023/05/14 04:31:22;;;;;;;75.50;25.52;;;;;;;;;;5099393;27;20099;-70
2023/05/14 04:33:47;;;;;;;77.53;24.75;;;;;;;;;;5113580;27;20074;-70
2023/05/14 04:36:13;;;;;;;79.25;27.02;;;;;;;;;;5109461;27;20028;-70
2023/05/14 04:38:38;;;;;;;75.78;24.85;;;;;;;;;;5099317;27;20508;-70
2023/05/14 04:41:04;;;;;;;72.95;23.92;;;;;;;;;;5091522;28;20130;-70
2023/05/14 04:43:30;;;;;;;81.35;25.35;;;;;;;;;;5105725;27;20227;-70
2023/05/14 04:45:55;;;;;;;74.70;25.63;;;;;;;;;;5098259;28;20561;-70
2023/05/14 04:48:21;;;;;;;71.90;25.13;;;;;;;;;;5103163;27;20034;-70
2023/05/14 04:50:46;;;;;;;83.32;26.30;;;;;;;;;;5104431;28;20035;-70
2023/05/14 04:53:12;;;;;;;80.38;25.55;;;;;;;;;;5090103;28;20032;-70
2023/05/14 04:55:37;;;;;;;79.25;24.08;;;;;;;;;;5090320;27;20027;-69
2023/05/14 04:58:02;;;;;;;77.72;25.30;;;;;;;;;;5104304;28;20589;-70
2023/05/14 05:00:28;;;;;;;77.45;25.90;;;;;;;;;;5101846;27;20080;-69
2023/05/14 05:02:54;;;;;;;73.53;25.23;;;;;;;;;;5098619;27;20124;-70
2023/05/14 05:05:19;;;;;;;74.20;25.73;;;;;;;;;;5104831;27;20035;-70
2023/05/14 05:07:45;;;;;;;81.18;25.55;;;;;;;;;;5104991;27;20019;-70
2023/05/14 05:10:10;;;;;;;81.57;26.17;;;;;;;;;;5104412;28;20023;-70
2023/05/14 05:12:36;;;;;;;71.03;25.45;;;;;;;;;;5104850;27;20824;-70
2023/05/14 05:15:01;;;;;;;77.38;25.80;;;;;;;;;;5104834;27;20604;-70
2023/05/14 05:17:28;;;;;;;77.40;25.80;;;;;;;;;;5102158;27;20034;-70
2023/05/14 05:19:53;;;;;;;86.68;26.58;;;;;;;;;;5097828;27;20042;-70
2023/05/14 05:22:19;;;;;;;88.65;27.67;;;;;;;;;;5091497;28;20087;-70
2023/05/14 05:24:44;;;;;;;82.78;25.10;;;;;;;;;;5095049;28;20028;-70
2023/05/14 05:27:09;;;;;;;76.65;26.05;;;;;;;;;;5091875;28;20671;-70
2023/05/14 05:29:35;;;;;;;75.80;25.77;;;;;;;;;;5098350;27;20084;-70
2023/05/14 05:32:01;;;;;;;70.90;25.23;;;;;;;;;;5098722;27;20085;-70
2023/05/14 05:34:26;;;;;;;81.57;25.55;;;;;;;;;;5099856;28;20032;-70
2023/05/14 05:36:51;;;;;;;79.68;25.67;;;;;;;;;;5090819;27;20032;-70
2023/05/14 05:39:17;;;;;;;71.50;24.08;;;;;;;;;;5082615;28;20075;-70
2023/05/14 05:41:43;;;;;;;81.47;25.77;;;;;;;;;;5095464;28;20035;-70
2023/05/14 05:44:08;;;;;;;82.32;25.60;;;;;;;;;;5104880;27;20034;-70
2023/05/14 05:46:34;;;;;;;67.55;21.77;;;;;;;;;;5104921;28;20548;-70
2023/05/14 05:48:59;;;;;;;85.70;26.48;;;;;;;;;;5105451;28;20042;-70
2023/05/14 05:51:25;;;;;;;78.25;24.92;;;;;;;;;;5105353;27;20038;-69
2023/05/14 05:53:50;;;;;;;71.43;23.88;;;;;;;;;;5105767;27;20024;-69
2023/05/14 05:56:16;;;;;;;67.65;22.08;;;;;;;;;;5110891;27;20032;-69
2023/05/14 05:58:41;;;;;;;63.22;21.52;;;;;;;;;;5112511;27;20019;-70
2023/05/14 06:01:06;;;;;;;83.95;27.52;;;;;;;;;;5105590;28;20476;-70
2023/05/14 06:03:32;;;;;;;79.13;24.98;;;;;;;;;;5104846;27;20023;-69
2023/05/14 06:05:57;;;;;;;83.95;25.98;;;;;;;;;;5096274;28;20062;-70
2023/05/14 06:08:23;;;;;;;70.30;24.52;;;;;;;;;;5090483;28;20043;-70
2023/05/14 06:10:48;;;;;;;73.28;24.38;;;;;;;;;;5087983;27;20028;-70
2023/05/14 06:13:13;;;;;;;65.53;22.73;;;;;;;;;;5102024;28;20038;-70
2023/05/14 06:15:39;;;;;;;67.07;23.40;;;;;;;;;;5099837;27;20066;-70
2023/05/14 06:18:04;;;;;;;78.15;25.50;;;;;;;;;;5093845;27;20043;-70
2023/05/14 06:20:30;;;;;;;69.20;23.77;;;;;;;;;;5092225;27;20048;-70
2023/05/14 06:22:55;;;;;;;73.82;24.80;;;;;;;;;;5106443;27;20028;-70
2023/05/14 06:25:20;;;;;;;69.15;22.95;;;;;;;;;;5098857;27;20023;-70
2023/05/14 06:27:46;;;;;;;61.38;20.17;;;;;;;;;;5095860;28;20425;-70
2023/05/14 06:30:12;;;;;;;62.00;22.48;;;;;;;;;;5100563;28;20038;-70
2023/05/14 06:32:37;;;;;;;66.25;22.08;;;;;;;;;;5113901;27;20089;-70
2023/05/14 06:35:03;;;;;;;72.25;22.38;;;;;;;;;;5108174;27;20024;-70
2023/05/14 06:37:28;;;;;;;68.88;21.98;;;;;;;;;;5113501;27;20111;-70
2023/05/14 06:39:54;;;;;;;67.22;23.38;;;;;;;;;;5087689;28;20047;-70
2023/05/14 06:42:19;;;;;;;66.38;23.10;;;;;;;;;;5095289;27;20047;-70
2023/05/14 06:44:44;;;;;;;65.85;22.38;;;;;;;;;;5084886;27;20507;-70
2023/05/14 06:47:10;;;;;;;74.13;24.67;;;;;;;;;;5091980;27;20028;-71
2023/05/14 06:49:35;;;;;;;69.15;23.13;;;;;;;;;;5089823;27;20019;-71
2023/05/14 06:52:01;;;;;;;66.95;23.33;;;;;;;;;;5097251;27;20239;-70
2023/05/14 06:54:27;;;;;;;61.88;22.85;;;;;;;;;;5091860;28;20593;-70
2023/05/14 06:56:52;;;;;;;55.42;20.17;;;;;;;;;;5101745;27;20047;-70
2023/05/14 06:59:18;;;;;;;69.07;22.70;;;;;;;;;;5077989;27;21570;-70
2023/05/14 07:01:43;;;;;;;64.05;23.38;;;;;;;;;;5095116;27;20114;-70
2023/05/14 07:04:08;;;;;;;68.13;23.83;;;;;;;;;;5098079;27;20019;-70
2023/05/14 07:06:34;;;;;;;63.38;22.15;;;;;;;;;;5093847;27;20038;-69
2023/05/14 07:09:00;;;;;;;54.00;19.83;;;;;;;;;;5093963;27;20130;-70
2023/05/14 07:11:25;;;;;;;38.83;14.68;;;;;;;;;;5079673;27;20138;-70
2023/05/14 07:13:51;;;;;;;62.92;22.58;;;;;;;;;;5090100;27;20669;-70
2023/05/14 07:16:16;;;;;;;67.85;23.27;;;;;;;;;;5096039;27;20032;-70
2023/05/14 07:18:42;;;;;;;67.13;23.80;;;;;;;;;;5099490;27;20032;-70
2023/05/14 07:21:08;;;;;;;57.08;20.77;;;;;;;;;;5092517;27;20042;-70
2023/05/14 07:23:35;;;;;;;59.88;21.83;;;;;;;;;;5093618;27;20047;-70
2023/05/14 07:26:01;;;;;;;67.20;22.00;;;;;;;;;;5098089;27;20039;-70
2023/05/14 07:28:26;;;;;;;54.72;20.23;;;;;;;;;;5085853;28;20059;-70
2023/05/14 07:30:52;;;;;;;56.88;20.02;;;;;;;;;;5107973;27;20036;-70
2023/05/14 07:33:18;;;;;;;60.15;21.73;;;;;;;;;;5097555;27;20468;-70
2023/05/14 07:35:43;;;;;;;54.70;21.88;;;;;;;;;;5091319;28;20045;-70
2023/05/14 07:38:08;;;;;;;58.38;21.10;;;;;;;;;;5096061;28;20051;-70
2023/05/14 07:40:34;;;;;;;53.67;20.60;;;;;;;;;;5096655;27;20024;-70
2023/05/14 07:42:59;;;;;;;58.78;21.50;;;;;;;;;;5103533;27;20024;-70
2023/05/14 07:45:25;;;;;;;53.20;20.77;;;;;;;;;;5096311;27;20032;-70
2023/05/14 07:47:50;;;;;;;70.03;24.00;;;;;;;;;;5098389;27;20035;-70
2023/05/14 07:50:19;;;;;;;43.65;18.05;;;;;;;;;;5101798;27;20043;-70
2023/05/14 07:52:44;;;;;;;60.40;21.00;;;;;;;;;;5095474;27;20051;-70
2023/05/14 07:55:11;;;;;;;57.70;21.25;;;;;;;;;;5090447;27;20574;-71
2023/05/14 07:57:37;;;;;;;57.22;18.38;;;;;;;;;;5098992;27;20590;-71
2023/05/14 08:00:06;;;;;;;52.53;19.15;;;;;;;;;;5104196;27;20086;-71
2023/05/14 08:02:32;;;;;;;50.78;20.63;;;;;;;;;;5092556;27;20527;-70
2023/05/14 08:04:57;;;;;;;55.65;20.05;;;;;;;;;;5091224;27;20060;-71
2023/05/14 08:07:22;;;;;;;54.95;20.27;;;;;;;;;;5095696;28;20043;-70
2023/05/14 08:09:48;;;;;;;57.20;20.60;;;;;;;;;;5102426;28;20042;-71
2023/05/14 08:12:13;;;;;;;49.35;20.00;;;;;;;;;;5087008;28;20051;-70
2023/05/14 08:14:39;;;;;;;43.72;15.48;;;;;;;;;;5095978;27;20031;-71
2023/05/14 08:17:04;;;;;;;57.92;20.92;;;;;;;;;;5102193;27;20092;-70
2023/05/14 08:19:30;;;;;;;54.72;20.85;;;;;;;;;;5097929;27;20027;-70
2023/05/14 08:21:55;;;;;;;50.60;19.77;;;;;;;;;;5099818;28;20023;-71
2023/05/14 08:24:21;;;;;;;48.83;19.40;;;;;;;;;;5106516;27;20036;-71
2023/05/14 08:26:46;;;;;;;51.25;20.45;;;;;;;;;;5106154;27;20099;-71
2023/05/14 08:29:11;;;;;;;56.40;19.63;;;;;;;;;;5100785;27;20047;-71
2023/05/14 08:31:37;;;;;;;53.53;20.73;;;;;;;;;;5107372;27;20043;-70
2023/05/14 08:34:02;;;;;;;50.45;18.27;;;;;;;;;;5088389;27;20028;-71
2023/05/14 08:36:28;;;;;;;53.70;20.38;;;;;;;;;;5109468;27;20035;-71
2023/05/14 08:38:53;;;;;;;50.60;19.70;;;;;;;;;;5095392;27;20040;-71
2023/05/14 08:41:20;;;;;;;46.92;20.42;;;;;;;;;;5102667;27;20032;-71
2023/05/14 08:44:14;;;;;;;54.25;20.73;;;;;;;;;;5094213;27;20031;-71
2023/05/14 08:46:40;;;;;;;54.20;20.02;;;;;;;;;;5093142;28;20024;-71
2023/05/14 08:49:27;;;;;;;44.80;19.17;;;;;;;;;;5094101;27;20058;-70
2023/05/14 08:51:52;;;;;;;41.00;17.13;;;;;;;;;;5100087;27;20089;-71
2023/05/14 08:54:18;;;;;;;41.72;18.38;;;;;;;;;;5091640;27;20043;-70
2023/05/14 08:56:47;;;;;;;45.58;18.75;;;;;;;;;;5101178;27;20484;-71
2023/05/14 08:59:13;;;;;;;35.53;16.98;;;;;;;;;;5104228;28;20104;-71
2023/05/14 09:01:45;;;;;;;43.03;18.02;;;;;;;;;;5103330;27;20122;-71
2023/05/14 09:04:10;;;;;;;42.50;17.83;;;;;;;;;;5106206;28;20020;-71
2023/05/14 09:06:36;;;;;;;41.70;19.30;;;;;;;;;;5092556;27;20035;-72
2023/05/14 09:09:02;;;;;;;45.25;20.05;;;;;;;;;;5096074;27;20035;-72
2023/05/14 09:11:28;;;;;;;46.22;17.83;;;;;;;;;;5094942;27;20664;-73
2023/05/14 09:13:53;;;;;;;44.22;18.77;;;;;;;;;;5093393;27;20536;-72
2023/05/14 09:16:20;;;;;;;34.05;16.33;;;;;;;;;;5082177;27;20111;-72
2023/05/14 09:18:46;;;;;;;41.13;18.48;;;;;;;;;;5091362;27;20096;-72
2023/05/14 09:21:13;;;;;;;39.03;17.52;;;;;;;;;;5095174;28;20038;-73
2023/05/14 09:23:43;;;;;;;38.80;18.17;;;;;;;;;;5101409;27;20415;-72
2023/05/14 09:26:08;;;;;;;39.45;19.42;;;;;;;;;;5102906;27;20031;-73
2023/05/14 09:28:33;;;;;;;42.30;18.65;;;;;;;;;;5095887;27;20076;-72
2023/05/14 09:30:59;;;;;;;43.80;18.33;;;;;;;;;;5106329;27;20028;-73
2023/05/14 09:33:28;;;;;;;41.40;18.42;;;;;;;;;;5097877;27;20042;-73
2023/05/14 09:36:01;;;;;;;38.70;18.10;;;;;;;;;;5086197;27;20530;-72
2023/05/14 09:38:30;;;;;;;43.15;18.88;;;;;;;;;;5096127;28;20448;-73
2023/05/14 09:40:57;;;;;;;41.53;17.95;;;;;;;;;;5084029;28;20420;-72
2023/05/14 09:43:22;;;;;;;37.85;17.50;;;;;;;;;;5102658;28;20031;-72
2023/05/14 09:45:47;;;;;;;37.95;19.00;;;;;;;;;;5101010;27;20028;-72
2023/05/14 09:48:13;;;;;;;36.78;18.50;;;;;;;;;;5102149;27;20032;-72
2023/05/14 09:50:42;;;;;;;37.72;17.40;;;;;;;;;;5093723;27;20034;-72
2023/05/14 09:53:08;;;;;;;39.08;17.48;;;;;;;;;;5091372;27;20035;-72
2023/05/14 09:55:35;;;;;;;36.78;16.98;;;;;;;;;;5094784;27;20437;-72
2023/05/14 09:58:01;;;;;;;33.97;17.20;;;;;;;;;;5093061;28;20019;-72
2023/05/14 10:00:26;;;;;;;31.63;16.00;;;;;;;;;;5093421;27;20051;-72
2023/05/14 10:02:53;;;;;;;37.33;17.00;;;;;;;;;;5086419;28;20038;-72
2023/05/14 10:05:22;;;;;;;37.55;18.27;;;;;;;;;;5110107;28;20112;-72
2023/05/14 10:07:49;;;;;;;34.70;16.60;;;;;;;;;;5101441;27;20028;-71
2023/05/14 10:10:18;;;;;;;35.58;17.55;;;;;;;;;;5091065;28;20031;-71
2023/05/14 10:12:50;;;;;;;32.30;16.55;;;;;;;;;;5089362;27;20039;-72
2023/05/14 10:15:20;;;;;;;31.45;16.45;;;;;;;;;;5089479;27;20046;-72
2023/05/14 10:17:48;;;;;;;32.08;16.95;;;;;;;;;;5092159;27;20031;-72
2023/05/14 10:20:17;;;;;;;32.80;17.10;;;;;;;;;;5090903;28;20056;-72
2023/05/14 10:22:43;;;;;;;34.15;16.67;;;;;;;;;;5090990;27;20038;-72
2023/05/14 10:25:09;;;;;;;32.47;17.23;;;;;;;;;;5092697;28;20032;-72
2023/05/14 10:27:35;;;;;;;36.95;18.10;;;;;;;;;;5091906;27;20043;-71
2023/05/14 10:30:09;;;;;;;33.95;17.08;;;;;;;;;;5098113;27;20027;-72
2023/05/14 10:32:36;;;;;;;32.83;16.05;;;;;;;;;;5086599;27;20036;-72
2023/05/14 10:35:15;;;;;;;33.88;17.00;;;;;;;;;;5094036;27;20117;-72
2023/05/14 10:37:40;;;;;;;34.22;17.02;;;;;;;;;;5101945;27;20063;-72
2023/05/14 10:40:07;;;;;;;30.08;15.18;;;;;;;;;;5087760;28;20058;-72
2023/05/14 10:42:35;;;;;;;39.38;19.05;;;;;;;;;;5102123;27;20063;-72
2023/05/14 10:45:06;;;;;;;36.83;17.23;;;;;;;;;;5099286;28;20020;-72
2023/05/14 10:47:32;;;;;;;34.42;15.88;;;;;;;;;;5102010;28;20058;-72
2023/05/14 10:49:59;;;;;;;35.50;16.90;;;;;;;;;;5099406;28;20458;-72
2023/05/14 10:52:25;;;;;;;35.47;16.55;;;;;;;;;;5102133;28;20571;-72
2023/05/14 10:54:53;;;;;;;29.38;13.75;;;;;;;;;;5099599;27;20058;-72
2023/05/14 10:57:20;;;;;;;36.08;17.83;;;;;;;;;;5094839;28;20047;-72
2023/05/14 10:59:47;;;;;;;33.33;17.65;;;;;;;;;;5100296;28;20124;-72
2023/05/14 11:02:20;;;;;;;34.22;16.15;;;;;;;;;;5104766;27;20054;-72
2023/05/14 11:04:57;;;;;;;33.33;16.52;;;;;;;;;;5105571;27;20571;-72
2023/05/14 11:07:27;;;;;;;33.97;17.00;;;;;;;;;;5104055;28;20015;-72
2023/05/14 11:09:55;;;;;;;30.60;15.95;;;;;;;;;;5094843;28;20062;-72
2023/05/14 11:12:20;;;;;;;34.67;16.02;;;;;;;;;;5100128;27;20038;-72
2023/05/14 11:14:46;;;;;;;32.80;17.25;;;;;;;;;;5104958;27;20035;-72
2023/05/14 11:17:11;;;;;;;33.67;18.10;;;;;;;;;;5089587;27;20047;-72
2023/05/14 11:19:37;;;;;;;32.67;18.58;;;;;;;;;;5090163;27;20024;-71
2023/05/14 11:22:02;;;;;;;35.63;17.73;;;;;;;;;;5101103;27;20113;-72
2023/05/14 11:24:27;;;;;;;31.75;16.65;;;;;;;;;;5100668;27;20116;-72
2023/05/14 11:26:54;;;;;;;35.40;18.45;;;;;;;;;;5110305;27;20088;-72
2023/05/14 11:29:20;;;;;;;33.88;19.15;;;;;;;;;;5116648;27;20135;-72
2023/05/14 11:31:45;;;;;;;34.05;18.08;;;;;;;;;;5113088;27;20098;-72
2023/05/14 11:34:11;;;;;;;37.42;18.23;;;;;;;;;;5104318;28;20058;-72
2023/05/14 11:36:36;;;;;;;34.22;17.35;;;;;;;;;;5103278;27;20674;-72
2023/05/14 11:39:01;;;;;;;39.38;18.85;;;;;;;;;;5098950;27;20058;-72
2023/05/14 11:41:27;;;;;;;36.47;17.67;;;;;;;;;;5104765;27;20031;-72
2023/05/14 11:43:52;;;;;;;37.15;18.00;;;;;;;;;;5105095;27;20035;-72
2023/05/14 11:46:18;;;;;;;36.78;18.27;;;;;;;;;;5105563;28;20031;-72
2023/05/14 11:48:44;;;;;;;40.45;20.52;;;;;;;;;;5103853;27;20089;-72
2023/05/14 11:51:09;;;;;;;35.70;17.35;;;;;;;;;;5095464;27;20046;-72
2023/05/14 11:53:35;;;;;;;30.77;18.75;;;;;;;;;;5104862;27;20032;-72
2023/05/14 11:56:01;;;;;;;34.70;18.17;;;;;;;;;;5104068;27;20133;-72
2023/05/14 11:58:32;;;;;;;33.60;18.60;;;;;;;;;;5105143;28;20034;-73
2023/05/14 12:00:57;;;;;;;33.15;18.08;;;;;;;;;;5099368;27;20052;-72
2023/05/14 12:03:28;;;;;;;31.85;18.40;;;;;;;;;;5099277;27;20042;-72
2023/05/14 12:05:57;;;;;;;37.80;19.27;;;;;;;;;;5096017;27;20609;-73
2023/05/14 12:08:30;;;;;;;31.70;18.70;;;;;;;;;;5099845;28;20032;-72
2023/05/14 12:10:58;;;;;;;33.72;18.38;;;;;;;;;;5093617;27;20126;-73
2023/05/14 12:13:28;;;;;;;32.70;18.15;;;;;;;;;;5102043;28;20046;-73
2023/05/14 12:15:58;;;;;;;35.05;18.08;;;;;;;;;;5098733;28;20040;-73
2023/05/14 12:18:24;;;;;;;34.85;18.55;;;;;;;;;;5095842;27;20050;-72
2023/05/14 12:20:52;;;;;;;33.40;17.80;;;;;;;;;;5097525;27;20043;-72
2023/05/14 12:23:31;;;;;;;35.47;18.77;;;;;;;;;;5097402;28;20043;-72
2023/05/14 12:26:05;;;;;;;36.92;18.55;;;;;;;;;;5096591;28;20036;-72
2023/05/14 12:28:31;;;;;;;35.03;17.85;;;;;;;;;;5087338;27;20020;-71
2023/05/14 12:30:57;;;;;;;35.83;18.15;;;;;;;;;;5091809;28;20026;-72
2023/05/14 12:33:25;;;;;;;34.13;17.85;;;;;;;;;;5104135;27;20032;-72
2023/05/14 12:35:52;;;;;;;34.83;18.25;;;;;;;;;;5099816;27;20062;-72
2023/05/14 12:38:18;;;;;;;30.63;16.50;;;;;;;;;;5109633;27;20040;-72
2023/05/14 12:40:43;;;;;;;35.10;16.77;;;;;;;;;;5093345;28;20404;-72
2023/05/14 12:43:09;;;;;;;31.20;16.85;;;;;;;;;;5099507;27;20393;-72
2023/05/14 12:45:34;;;;;;;34.05;17.05;;;;;;;;;;5094936;27;20580;-72
2023/05/14 12:47:59;;;;;;;30.98;17.60;;;;;;;;;;5103587;28;20031;-72
2023/05/14 12:50:25;;;;;;;32.92;15.77;;;;;;;;;;5106050;27;20138;-72
2023/05/14 12:52:50;;;;;;;29.15;15.40;;;;;;;;;;5099588;27;20080;-72
2023/05/14 12:55:16;;;;;;;23.58;15.48;;;;;;;;;;5092619;27;20088;-72
2023/05/14 12:57:41;;;;;;;30.77;16.27;;;;;;;;;;5103011;27;20032;-72
2023/05/14 13:00:10;;;;;;;28.25;16.52;;;;;;;;;;5102315;27;20122;-72
2023/05/14 13:02:35;;;;;;;31.38;16.75;;;;;;;;;;5101080;27;20043;-72
2023/05/14 13:05:04;;;;;;;28.63;15.55;;;;;;;;;;5101329;28;20023;-72
2023/05/14 13:07:30;;;;;;;25.75;15.02;;;;;;;;;;5097124;27;20023;-72
2023/05/14 13:09:55;;;;;;;25.67;15.10;;;;;;;;;;5086755;27;20036;-72
2023/05/14 13:12:22;;;;;;;26.60;14.45;;;;;;;;;;5085516;27;20054;-72
2023/05/14 13:14:47;;;;;;;28.63;14.73;;;;;;;;;;5081897;28;20031;-73
2023/05/14 13:17:13;;;;;;;27.63;14.45;;;;;;;;;;5088313;28;20053;-73
2023/05/14 13:19:38;;;;;;;26.60;14.98;;;;;;;;;;5096698;27;20046;-73
2023/05/14 13:22:03;;;;;;;25.48;14.15;;;;;;;;;;5101675;28;20028;-72
2023/05/14 13:24:29;;;;;;;27.45;15.75;;;;;;;;;;5077978;27;20044;-73
2023/05/14 13:26:54;;;;;;;26.15;15.38;;;;;;;;;;5092954;27;20516;-72
2023/05/14 13:29:20;;;;;;;26.02;13.68;;;;;;;;;;5101864;28;20710;-73
2023/05/14 13:31:45;;;;;;;22.45;13.15;;;;;;;;;;5087053;27;20034;-72
2023/05/14 13:34:11;;;;;;;19.90;12.75;;;;;;;;;;5099267;28;20915;-73
2023/05/14 13:36:38;;;;;;;19.42;12.52;;;;;;;;;;5091292;27;20032;-73
2023/05/14 13:39:05;;;;;;;19.52;11.50;;;;;;;;;;5091957;28;20038;-73
2023/05/14 13:41:33;;;;;;;20.98;13.13;;;;;;;;;;5086682;27;20790;-72
2023/05/14 13:43:59;;;;;;;21.52;14.18;;;;;;;;;;5094128;27;20062;-73
2023/05/14 13:46:24;;;;;;;18.27;12.52;;;;;;;;;;5097972;28;20114;-72
2023/05/14 13:48:50;;;;;;;19.08;12.38;;;;;;;;;;5101469;27;20036;-73
2023/05/14 13:51:15;;;;;;;17.63;11.77;;;;;;;;;;5100478;28;20138;-72
2023/05/14 13:53:41;;;;;;;18.17;12.23;;;;;;;;;;5099795;28;20027;-73
2023/05/14 13:56:07;;;;;;;19.02;12.57;;;;;;;;;;5101039;27;20036;-72
2023/05/14 13:58:33;;;;;;;19.27;12.18;;;;;;;;;;5093086;27;20023;-72
2023/05/14 14:00:58;;;;;;;18.10;12.05;;;;;;;;;;5082059;28;20057;-72
2023/05/14 14:03:23;;;;;;;18.83;12.18;;;;;;;;;;5094092;28;20852;-72
2023/05/14 14:05:50;;;;;;;21.60;12.07;;;;;;;;;;5102812;27;20024;-73
2023/05/14 14:08:16;;;;;;;18.27;10.77;;;;;;;;;;5098303;27;20039;-73
2023/05/14 14:10:41;;;;;;;16.77;11.88;;;;;;;;;;5105396;27;20050;-73
2023/05/14 14:13:08;;;;;;;16.50;11.00;;;;;;;;;;5106292;28;20246;-73